DAUU

Ain el Beida Airport

Ouargla, Algeria
TAF DAUU 172000Z 1721/1806 04006KT 9999 FEW040 PROB30 TEMPO 1722/1804 5000 BR BKN015
Issued Valid From Valid To
Nov-17 @ 20:00 UTC
(2 hours ago)
Nov-17 @ 21:00 UTC
(an hour ago)
Nov-18 @ 06:00 UTC
(in 8 hours)
Nov-17 @ 21:00 to Nov-18 @ 06:00
TAF DAUU 172000Z 1721/1806 04006KT 9999 FEW040
Wind Visibility Clouds
40° at 6 knots 10,000+ meters
  • Few at 4,000' AGL
Temporary  (Probability 30%) Nov-17 @ 22:00 to Nov-18 @ 04:00
PROB30 TEMPO 1722/1804 5000 BR BKN015
Visibility Clouds Conditions
5,005 meters
  • Broken at 1,500' AGL
  • Mist
TAF DAUU 172000Z 1721/1806 04006KT 9999 FEW040 PROB30 TEMPO 1722/1804 5000 BR BKN015
Issued Nov-17 @ 20:00 UTC
(2 hours ago)
Valid From Nov-17 @ 21:00 UTC
(an hour ago)
Valid To Nov-18 @ 06:00 UTC
(in 8 hours)
Nov-17 @ 21:00 - Nov-18 @ 06:00
Wind Visibility
40° at 6 knots 10,000+ meters
Clouds
  • Few at 4,000' AGL
Probability 30% Temporary Nov-17 @ 22:00 - Nov-18 @ 04:00
Clouds
  • Broken at 1,500' AGL
Conditions
  • Mist